createdAt,value
2022-09-23T00:01:19.319Z,63.50
2022-09-23T00:03:46.994Z,63.50
2022-09-23T00:06:20.807Z,63.60
2022-09-23T00:08:49.804Z,63.70
2022-09-23T00:11:26.855Z,63.90
2022-09-23T00:13:59.979Z,64.30
2022-09-23T00:16:34.257Z,64.00
2022-09-23T00:19:03.809Z,63.90
2022-09-23T00:21:30.885Z,63.80
2022-09-23T00:23:58.100Z,63.80
2022-09-23T00:26:25.287Z,63.80
2022-09-23T00:28:52.877Z,63.80
2022-09-23T00:31:23.950Z,64.10
2022-09-23T00:34:00.074Z,64.30
2022-09-23T00:36:32.384Z,64.40
2022-09-23T00:39:00.067Z,64.40
2022-09-23T00:41:27.866Z,64.40
2022-09-23T00:44:01.131Z,64.40
2022-09-23T00:46:40.416Z,64.30
2022-09-23T00:49:14.630Z,64.20
2022-09-23T00:51:54.531Z,64.20
2022-09-23T00:54:24.837Z,64.40
2022-09-23T00:56:52.247Z,64.50
2022-09-23T00:59:20.792Z,64.70
2022-09-23T01:01:49.920Z,64.80
2022-09-23T01:04:17.188Z,64.90
2022-09-23T01:06:44.492Z,64.90
2022-09-23T01:09:11.749Z,64.70
2022-09-23T01:11:48.420Z,64.50
2022-09-23T01:14:44.504Z,64.40
2022-09-23T01:17:44.119Z,64.40
2022-09-23T01:20:43.216Z,64.80
2022-09-23T01:23:50.886Z,64.40
2022-09-23T01:26:48.904Z,65.40
2022-09-23T01:29:56.002Z,64.40
2022-09-23T01:32:42.829Z,64.30
2022-09-23T01:36:04.560Z,64.40
2022-09-23T01:38:42.504Z,64.80
2022-09-23T01:41:50.264Z,64.20
2022-09-23T01:44:35.187Z,65.50
2022-09-23T01:47:19.527Z,64.80
2022-09-23T01:50:27.451Z,65.00
2022-09-23T01:53:01.982Z,65.30
2022-09-23T01:55:34.588Z,64.90
2022-09-23T01:58:20.976Z,65.10
2022-09-23T02:01:01.504Z,65.50
2022-09-23T02:03:35.414Z,64.90
2022-09-23T02:06:22.998Z,64.80
2022-09-23T02:09:16.292Z,65.40
2022-09-23T02:11:48.315Z,66.10
2022-09-23T02:14:25.130Z,65.00
2022-09-23T02:16:56.150Z,65.10
2022-09-23T02:19:40.385Z,65.00
2022-09-23T02:22:23.096Z,65.10
2022-09-23T02:24:50.427Z,64.90
2022-09-23T02:27:32.045Z,64.90
2022-09-23T02:30:19.009Z,65.10
2022-09-23T02:33:21.500Z,65.60
2022-09-23T02:35:56.262Z,66.10
2022-09-23T02:38:53.023Z,65.10
2022-09-23T02:41:55.864Z,65.60
2022-09-23T02:44:24.140Z,66.20
2022-09-23T02:46:53.197Z,65.20
2022-09-23T02:49:29.906Z,65.30
2022-09-23T02:52:07.653Z,65.50
2022-09-23T02:54:35.567Z,65.40
2022-09-23T02:57:06.909Z,65.20
2022-09-23T02:59:35.778Z,65.10
2022-09-23T03:02:20.730Z,65.10
2022-09-23T03:05:08.998Z,65.00
2022-09-23T03:07:51.444Z,65.20
2022-09-23T03:10:26.142Z,65.20
2022-09-23T03:13:29.985Z,65.00
2022-09-23T03:16:17.330Z,65.10
2022-09-23T03:19:33.272Z,64.70
2022-09-23T03:22:13.075Z,64.90
2022-09-23T03:24:44.933Z,64.70
2022-09-23T03:27:17.886Z,64.60
2022-09-23T03:29:55.324Z,64.70
2022-09-23T03:32:28.081Z,65.20
2022-09-23T03:34:59.142Z,65.00
2022-09-23T03:37:50.492Z,65.00
2022-09-23T03:40:41.750Z,64.90
2022-09-23T03:43:12.813Z,65.00
2022-09-23T03:45:42.732Z,64.90
2022-09-23T03:48:10.262Z,64.80
2022-09-23T03:50:38.009Z,64.90
2022-09-23T03:53:05.506Z,65.00
2022-09-23T03:55:32.861Z,65.30
2022-09-23T03:58:00.394Z,65.30
2022-09-23T04:00:27.837Z,65.40
2022-09-23T04:02:54.811Z,65.40
2022-09-23T04:05:22.025Z,65.50
2022-09-23T04:07:50.966Z,65.50
2022-09-23T04:10:18.285Z,65.60
2022-09-23T04:12:45.438Z,65.60
2022-09-23T04:15:12.785Z,65.60
2022-09-23T04:17:40.043Z,65.70
2022-09-23T04:20:07.608Z,65.80
2022-09-23T04:22:35.129Z,65.80
2022-09-23T04:25:02.501Z,65.70
2022-09-23T04:27:32.105Z,65.70
2022-09-23T04:30:01.462Z,65.60
2022-09-23T04:32:28.495Z,65.50
2022-09-23T04:34:55.715Z,65.30
2022-09-23T04:37:22.830Z,65.40
2022-09-23T04:39:49.937Z,65.50
2022-09-23T04:42:17.077Z,65.70
2022-09-23T04:44:44.130Z,65.90
2022-09-23T04:47:11.256Z,66.00
2022-09-23T04:49:38.424Z,66.20
2022-09-23T04:52:06.014Z,66.00
2022-09-23T04:54:33.228Z,65.90
2022-09-23T04:57:00.448Z,65.90
2022-09-23T04:59:27.650Z,66.10
2022-09-23T05:01:55.541Z,66.10
2022-09-23T05:04:22.860Z,66.20
2022-09-23T05:06:49.987Z,66.10
2022-09-23T05:09:17.983Z,66.10
2022-09-23T05:11:45.791Z,66.20
2022-09-23T05:14:13.349Z,66.30
2022-09-23T05:16:40.839Z,66.50
2022-09-23T05:19:08.190Z,66.60
2022-09-23T05:21:36.716Z,66.60
2022-09-23T05:24:04.110Z,66.70
2022-09-23T05:26:32.678Z,66.70
2022-09-23T05:29:00.937Z,66.70
2022-09-23T05:31:30.144Z,66.70
2022-09-23T05:34:01.391Z,66.80
2022-09-23T05:36:36.914Z,67.10
2022-09-23T05:39:06.427Z,67.40
2022-09-23T05:41:34.137Z,67.60
2022-09-23T05:44:02.057Z,67.80
2022-09-23T05:46:31.147Z,68.00
2022-09-23T05:49:02.860Z,67.80
2022-09-23T05:51:32.482Z,67.90
2022-09-23T05:54:02.965Z,68.00
2022-09-23T05:56:32.062Z,68.00
2022-09-23T05:59:01.968Z,68.00
2022-09-23T06:01:34.205Z,68.20
2022-09-23T06:04:04.756Z,68.30
2022-09-23T06:06:36.464Z,68.40
2022-09-23T06:09:04.480Z,68.60
2022-09-23T06:11:33.964Z,70.00
2022-09-23T06:14:02.506Z,68.40
2022-09-23T06:16:34.944Z,68.70
2022-09-23T06:19:06.428Z,69.00
2022-09-23T06:21:39.530Z,69.00
2022-09-23T06:24:08.532Z,69.00
2022-09-23T06:26:38.009Z,69.00
2022-09-23T06:29:11.943Z,69.00
2022-09-23T06:31:41.300Z,68.90
2022-09-23T06:34:14.566Z,68.80
2022-09-23T06:36:45.758Z,69.10
2022-09-23T06:39:15.267Z,69.40
2022-09-23T06:41:44.130Z,69.80
2022-09-23T06:44:11.190Z,69.70
2022-09-23T06:46:38.448Z,69.90
2022-09-23T06:49:05.572Z,70.10
2022-09-23T06:51:33.496Z,70.30
2022-09-23T06:54:00.610Z,69.90
2022-09-23T06:56:27.944Z,69.80
2022-09-23T06:58:55.198Z,70.00
2022-09-23T07:01:23.389Z,70.10
2022-09-23T07:03:50.825Z,70.20
2022-09-23T07:06:18.399Z,70.10
2022-09-23T07:08:47.594Z,70.00
2022-09-23T07:11:15.991Z,70.00
2022-09-23T07:13:43.551Z,70.20
2022-09-23T07:16:11.816Z,70.10
2022-09-23T07:18:40.835Z,70.20
2022-09-23T07:21:15.459Z,70.10
2022-09-23T07:23:46.098Z,70.10
2022-09-23T07:26:14.736Z,70.00
2022-09-23T07:28:42.117Z,69.70
2022-09-23T07:31:26.607Z,69.80
2022-09-23T07:33:59.002Z,69.80
2022-09-23T07:36:28.016Z,69.80
2022-09-23T07:39:00.770Z,69.90
2022-09-23T07:41:29.004Z,69.90
2022-09-23T07:43:59.121Z,70.10
2022-09-23T07:46:32.444Z,70.30
2022-09-23T07:49:00.496Z,70.40
2022-09-23T07:51:35.966Z,70.20
2022-09-23T07:54:08.003Z,70.00
2022-09-23T07:56:36.647Z,70.00
2022-09-23T07:59:05.551Z,70.00
2022-09-23T08:01:35.931Z,69.80
2022-09-23T08:04:12.616Z,69.60
2022-09-23T08:06:45.551Z,69.40
2022-09-23T08:09:13.124Z,69.10
2022-09-23T08:11:42.262Z,68.90
2022-09-23T08:14:13.140Z,68.60
2022-09-23T08:16:41.674Z,68.60
2022-09-23T08:19:09.370Z,68.50
2022-09-23T08:21:39.468Z,68.50
2022-09-23T08:24:16.189Z,68.60
2022-09-23T08:26:48.149Z,68.40
2022-09-23T08:29:16.846Z,68.10
2022-09-23T08:31:44.220Z,68.00
2022-09-23T08:34:12.210Z,67.70
2022-09-23T08:36:39.842Z,67.50
2022-09-23T08:39:07.420Z,67.20
2022-09-23T08:41:46.580Z,67.10
2022-09-23T08:44:37.720Z,67.00
2022-09-23T08:47:28.879Z,66.00
2022-09-23T08:50:05.836Z,65.70
2022-09-23T08:53:02.071Z,66.10
2022-09-23T08:55:58.402Z,65.60
2022-09-23T08:59:01.883Z,65.40
2022-09-23T09:01:47.807Z,64.90
2022-09-23T09:04:36.106Z,64.90
2022-09-23T09:07:35.153Z,64.80
2022-09-23T09:10:16.095Z,64.70
2022-09-23T09:13:16.532Z,64.50
2022-09-23T09:16:15.782Z,64.80
2022-09-23T09:19:00.473Z,64.40
2022-09-23T09:21:38.888Z,63.80
2022-09-23T09:24:19.149Z,63.70
2022-09-23T09:26:46.371Z,63.30
2022-09-23T09:29:35.553Z,63.50
2022-09-23T09:32:33.157Z,63.40
2022-09-23T09:35:15.722Z,62.40
2022-09-23T09:37:48.599Z,62.60
2022-09-23T09:40:20.965Z,62.40
2022-09-23T09:42:50.503Z,62.40
2022-09-23T09:46:11.030Z,62.20
2022-09-23T09:48:54.578Z,61.80
2022-09-23T09:51:24.974Z,61.40
2022-09-23T09:53:52.652Z,61.80
2022-09-23T09:56:33.065Z,61.90
2022-09-23T09:59:13.508Z,60.80
2022-09-23T10:01:40.654Z,60.80
2022-09-23T10:04:23.714Z,61.10
2022-09-23T10:07:15.567Z,59.70
2022-09-23T10:09:52.073Z,59.10
2022-09-23T10:12:25.119Z,59.50
2022-09-23T10:14:57.190Z,59.90
2022-09-23T10:17:33.862Z,59.90
2022-09-23T10:20:09.608Z,59.70
2022-09-23T10:22:42.977Z,60.00
2022-09-23T10:25:20.151Z,60.00
2022-09-23T10:27:47.626Z,59.90
2022-09-23T10:30:27.681Z,59.90
2022-09-23T10:32:57.099Z,58.70
2022-09-23T10:35:26.646Z,59.50
2022-09-23T10:37:59.952Z,59.20
2022-09-23T10:40:54.056Z,58.80
2022-09-23T10:44:16.404Z,58.60
2022-09-23T10:47:28.607Z,58.30
2022-09-23T10:50:14.684Z,58.40
2022-09-23T10:53:12.877Z,58.60
2022-09-23T10:56:21.420Z,57.70
2022-09-23T10:59:06.526Z,56.90
2022-09-23T11:01:52.530Z,57.80
2022-09-23T11:04:42.515Z,57.90
2022-09-23T11:07:24.477Z,57.30
2022-09-23T11:10:23.274Z,57.80
2022-09-23T11:12:59.735Z,57.20
2022-09-23T11:15:57.447Z,57.70
2022-09-23T11:18:57.981Z,56.60
2022-09-23T11:22:02.747Z,56.80
2022-09-23T11:24:48.178Z,56.80
2022-09-23T11:27:39.138Z,57.20
2022-09-23T11:30:13.428Z,57.10
2022-09-23T11:35:48.619Z,56.70
2022-09-23T11:38:41.304Z,56.80
2022-09-23T11:41:19.622Z,56.20
2022-09-23T11:43:53.211Z,56.40
2022-09-23T11:46:42.474Z,56.30
2022-09-23T11:49:31.566Z,55.70
2022-09-23T11:52:39.390Z,56.00
2022-09-23T11:55:22.037Z,55.50
2022-09-23T11:58:09.355Z,56.10
2022-09-23T12:01:00.297Z,55.90
2022-09-23T12:03:54.622Z,56.00
2022-09-23T12:06:38.710Z,55.80
2022-09-23T12:09:35.739Z,55.50
2022-09-23T12:12:27.339Z,55.70
2022-09-23T12:15:13.820Z,55.00
2022-09-23T12:18:35.735Z,55.70
2022-09-23T12:21:38.836Z,55.10
2022-09-23T12:24:44.487Z,55.90
2022-09-23T12:27:24.239Z,54.40
2022-09-23T12:30:07.248Z,55.40
2022-09-23T12:32:34.571Z,54.80
2022-09-23T12:35:02.829Z,55.40
2022-09-23T12:37:38.561Z,55.10
2022-09-23T12:40:31.227Z,54.60
2022-09-23T12:43:02.403Z,53.60
2022-09-23T12:45:35.834Z,54.30
2022-09-23T12:48:25.611Z,54.40
2022-09-23T12:50:59.132Z,53.70
2022-09-23T12:53:35.254Z,53.70
2022-09-23T12:56:19.000Z,53.50
2022-09-23T12:58:48.814Z,53.50
2022-09-23T13:01:17.250Z,53.70
2022-09-23T13:04:15.855Z,53.70
2022-09-23T13:07:06.732Z,53.40
2022-09-23T13:09:42.395Z,53.00
2022-09-23T13:12:32.713Z,53.50
2022-09-23T13:15:06.362Z,53.00
2022-09-23T13:17:37.902Z,52.90
2022-09-23T13:20:36.590Z,52.70
2022-09-23T13:23:28.636Z,52.70
2022-09-23T13:26:09.534Z,52.80
2022-09-23T13:28:57.102Z,52.50
2022-09-23T13:31:24.382Z,51.50
2022-09-23T13:34:02.456Z,53.00
2022-09-23T13:36:29.623Z,53.00
2022-09-23T13:39:25.942Z,53.00
2022-09-23T13:42:01.020Z,52.30
2022-09-23T13:44:29.180Z,53.20
2022-09-23T13:47:00.179Z,52.90
2022-09-23T13:49:35.442Z,52.50
2022-09-23T13:52:03.841Z,51.90
2022-09-23T13:54:47.317Z,52.10
2022-09-23T13:57:34.062Z,51.80
2022-09-23T14:00:16.557Z,51.00
2022-09-23T14:02:44.642Z,51.70
2022-09-23T14:05:22.583Z,51.80
2022-09-23T14:07:55.431Z,51.60
2022-09-23T14:10:25.892Z,51.50
2022-09-23T14:12:55.347Z,51.70
2022-09-23T14:15:23.126Z,51.80
2022-09-23T14:18:02.646Z,51.70
2022-09-23T14:20:29.791Z,51.40
2022-09-23T14:23:10.736Z,51.90
2022-09-23T14:25:38.852Z,51.10
2022-09-23T14:28:06.290Z,51.80
2022-09-23T14:30:33.663Z,51.40
2022-09-23T14:33:03.450Z,51.40
2022-09-23T14:35:48.244Z,51.50
2022-09-23T14:38:44.383Z,51.00
2022-09-23T14:41:22.051Z,51.10
2022-09-23T14:43:57.351Z,50.90
2022-09-23T14:46:27.643Z,50.90
2022-09-23T14:49:11.416Z,51.00
2022-09-23T14:51:42.016Z,51.10
2022-09-23T14:54:40.184Z,51.00
2022-09-23T14:57:23.350Z,50.20
2022-09-23T15:00:09.266Z,50.40
2022-09-23T15:02:39.530Z,50.40
2022-09-23T15:05:42.637Z,51.10
2022-09-23T15:08:23.297Z,51.10
2022-09-23T15:10:51.428Z,51.30
2022-09-23T15:13:23.447Z,51.80
2022-09-23T15:15:55.500Z,51.80
2022-09-23T15:18:29.834Z,52.10
2022-09-23T15:21:23.306Z,51.60
2022-09-23T15:23:54.950Z,52.10
2022-09-23T15:26:25.721Z,52.00
2022-09-23T15:28:58.407Z,51.90
2022-09-23T15:31:26.772Z,51.70
2022-09-23T15:33:54.228Z,51.60
2022-09-23T15:36:28.917Z,51.50
2022-09-23T15:38:57.443Z,50.70
2022-09-23T15:41:24.697Z,50.60
2022-09-23T15:43:51.960Z,50.00
2022-09-23T15:46:28.185Z,49.60
2022-09-23T15:49:00.545Z,48.80
2022-09-23T15:51:28.738Z,48.60
2022-09-23T15:53:56.501Z,48.00
2022-09-23T15:56:24.918Z,47.50
2022-09-23T15:58:52.167Z,47.30
2022-09-23T16:01:29.727Z,47.20
2022-09-23T16:03:58.448Z,46.60
2022-09-23T16:06:25.981Z,47.40
2022-09-23T16:08:53.202Z,47.40
2022-09-23T16:11:24.316Z,47.40
2022-09-23T16:13:52.255Z,47.40
2022-09-23T16:16:21.339Z,47.40
2022-09-23T16:18:51.407Z,47.10
2022-09-23T16:21:21.743Z,46.80
2022-09-23T16:23:51.422Z,46.60
2022-09-23T16:26:32.078Z,46.30
2022-09-23T16:28:59.841Z,46.00
2022-09-23T16:31:30.278Z,46.50
2022-09-23T16:34:00.291Z,46.70
2022-09-23T16:36:34.256Z,46.80
2022-09-23T16:39:06.191Z,47.00
2022-09-23T16:41:33.851Z,47.20
2022-09-23T16:44:04.398Z,47.40
2022-09-23T16:46:32.755Z,47.40
2022-09-23T16:49:00.889Z,47.70
2022-09-23T16:51:38.703Z,47.90
2022-09-23T16:54:10.496Z,48.10
2022-09-23T16:56:44.494Z,48.30
2022-09-23T16:59:16.451Z,48.60
2022-09-23T17:02:02.186Z,48.70
2022-09-23T17:04:29.559Z,49.10
2022-09-23T17:06:56.777Z,49.30
2022-09-23T17:09:29.138Z,49.40
2022-09-23T17:12:17.644Z,49.60
2022-09-23T17:14:44.789Z,50.00
2022-09-23T17:17:11.875Z,50.00
2022-09-23T17:19:41.564Z,50.20
2022-09-23T17:22:09.893Z,50.50
2022-09-23T17:24:37.131Z,51.00
2022-09-23T17:27:04.399Z,51.20
2022-09-23T17:29:31.726Z,51.50
2022-09-23T17:31:58.855Z,51.70
2022-09-23T17:34:26.178Z,52.00
2022-09-23T17:36:53.242Z,52.40
2022-09-23T17:39:20.417Z,52.70
2022-09-23T17:41:47.447Z,52.70
2022-09-23T17:44:16.189Z,52.70
2022-09-23T17:46:43.734Z,52.80
2022-09-23T17:49:11.435Z,52.90
2022-09-23T17:51:38.951Z,53.10
2022-09-23T17:54:06.600Z,53.20
2022-09-23T17:56:34.017Z,53.30
2022-09-23T17:59:02.524Z,53.40
2022-09-23T18:01:30.056Z,53.70
2022-09-23T18:04:00.490Z,54.00
2022-09-23T18:06:33.518Z,54.30
2022-09-23T18:09:04.385Z,54.40
2022-09-23T18:11:37.603Z,54.50
2022-09-23T18:14:18.616Z,54.60
2022-09-23T18:16:49.002Z,54.90
2022-09-23T18:19:20.269Z,54.80
2022-09-23T18:21:51.089Z,55.00
2022-09-23T18:24:34.952Z,55.10
2022-09-23T18:27:02.303Z,55.30
2022-09-23T18:29:29.843Z,55.40
2022-09-23T18:31:57.059Z,55.50
2022-09-23T18:34:25.303Z,55.60
2022-09-23T18:36:54.380Z,55.70
2022-09-23T18:39:21.770Z,55.90
2022-09-23T18:41:49.779Z,55.90
2022-09-23T18:44:17.209Z,56.20
2022-09-23T18:46:44.920Z,56.40
2022-09-23T18:49:30.070Z,56.50
2022-09-23T18:51:58.987Z,56.70
2022-09-23T18:54:29.023Z,57.00
2022-09-23T18:56:56.776Z,57.10
2022-09-23T18:59:29.092Z,57.20
2022-09-23T19:01:57.025Z,57.20
2022-09-23T19:04:26.304Z,57.20
2022-09-23T19:06:56.758Z,57.30
2022-09-23T19:09:24.201Z,57.20
2022-09-23T19:11:52.607Z,57.40
2022-09-23T19:14:20.250Z,57.50
2022-09-23T19:16:49.190Z,57.50
2022-09-23T19:19:17.016Z,57.60
2022-09-23T19:21:44.119Z,57.60
2022-09-23T19:24:15.971Z,57.70
2022-09-23T19:26:44.501Z,57.90
2022-09-23T19:29:16.920Z,57.90
2022-09-23T19:31:44.394Z,58.10
2022-09-23T19:34:18.245Z,58.10
2022-09-23T19:36:47.883Z,58.40
2022-09-23T19:39:20.974Z,58.30
2022-09-23T19:41:49.687Z,58.60
2022-09-23T19:44:17.564Z,58.40
2022-09-23T19:46:46.315Z,58.50
2022-09-23T19:49:13.737Z,58.60
2022-09-23T19:51:41.544Z,58.60
2022-09-23T19:54:09.236Z,58.70
2022-09-23T19:56:37.718Z,58.80
2022-09-23T19:59:09.389Z,58.80
2022-09-23T20:01:36.744Z,58.90
2022-09-23T20:04:04.629Z,59.00
2022-09-23T20:06:38.480Z,58.90
2022-09-23T20:09:06.033Z,59.20
2022-09-23T20:11:33.685Z,59.10
2022-09-23T20:14:04.348Z,59.20
2022-09-23T20:16:35.142Z,59.50
2022-09-23T20:19:04.206Z,59.60
2022-09-23T20:21:32.067Z,59.50
2022-09-23T20:23:59.289Z,59.60
2022-09-23T20:26:45.224Z,59.60
2022-09-23T20:29:12.519Z,59.70
2022-09-23T20:31:41.665Z,59.70
2022-09-23T20:34:10.387Z,59.90
2022-09-23T20:36:41.749Z,59.90
2022-09-23T20:39:10.380Z,60.00
2022-09-23T20:41:39.358Z,59.90
2022-09-23T20:44:12.610Z,60.00
2022-09-23T20:46:47.881Z,60.00
2022-09-23T20:49:17.694Z,60.20
2022-09-23T20:51:45.009Z,60.20
2022-09-23T20:54:12.433Z,60.20
2022-09-23T20:56:39.973Z,60.20
2022-09-23T20:59:07.185Z,60.40
2022-09-23T21:01:36.660Z,60.40
2022-09-23T21:04:05.969Z,60.40
2022-09-23T21:06:37.392Z,60.60
2022-09-23T21:09:06.154Z,60.60
2022-09-23T21:11:34.015Z,60.60
2022-09-23T21:14:01.520Z,60.70
2022-09-23T21:16:29.732Z,60.70
2022-09-23T21:18:57.008Z,61.00
2022-09-23T21:21:24.460Z,61.10
2022-09-23T21:23:51.981Z,61.10
2022-09-23T21:26:23.377Z,61.10
2022-09-23T21:28:57.676Z,61.30
2022-09-23T21:31:40.071Z,61.20
2022-09-23T21:34:11.806Z,61.20
2022-09-23T21:36:42.848Z,61.70
2022-09-23T21:39:11.927Z,61.70
2022-09-23T21:41:40.182Z,61.80
2022-09-23T21:44:08.620Z,61.90
2022-09-23T21:46:38.234Z,61.90
2022-09-23T21:49:05.917Z,62.00
2022-09-23T21:51:40.616Z,62.10
2022-09-23T21:54:16.982Z,62.00
2022-09-23T21:56:45.115Z,62.10
2022-09-23T21:59:12.521Z,62.00
2022-09-23T22:01:44.482Z,62.00
2022-09-23T22:04:19.194Z,62.10
2022-09-23T22:06:49.033Z,62.20
2022-09-23T22:09:19.939Z,62.00
2022-09-23T22:12:20.025Z,62.00
2022-09-23T22:14:47.938Z,61.90
2022-09-23T22:17:16.226Z,61.90
2022-09-23T22:19:47.115Z,62.20
2022-09-23T22:22:17.779Z,62.20
2022-09-23T22:24:47.171Z,62.00
2022-09-23T22:27:18.009Z,62.00
2022-09-23T22:30:03.531Z,62.00
2022-09-23T22:32:46.301Z,62.30
2022-09-23T22:35:20.538Z,62.30
2022-09-23T22:37:48.030Z,62.50
2022-09-23T22:40:16.458Z,62.60
2022-09-23T22:42:44.388Z,62.60
2022-09-23T22:45:12.862Z,62.70
2022-09-23T22:47:45.586Z,62.60
2022-09-23T22:50:14.801Z,62.50
2022-09-23T22:52:41.895Z,62.50
2022-09-23T22:55:09.964Z,62.60
2022-09-23T22:57:37.304Z,62.70
2022-09-23T23:00:09.471Z,62.90
2022-09-23T23:02:36.911Z,62.90
2022-09-23T23:05:04.248Z,62.90
2022-09-23T23:07:32.303Z,62.90
2022-09-23T23:09:59.303Z,63.00
2022-09-23T23:12:26.538Z,62.90
2022-09-23T23:14:53.665Z,62.90
2022-09-23T23:17:21.874Z,62.90
2022-09-23T23:19:50.678Z,63.00
2022-09-23T23:22:17.798Z,63.00
2022-09-23T23:24:45.033Z,63.10
2022-09-23T23:27:12.024Z,63.40
2022-09-23T23:29:39.136Z,63.50
2022-09-23T23:32:07.733Z,63.50
2022-09-23T23:34:34.853Z,63.50
2022-09-23T23:37:01.957Z,63.50
2022-09-23T23:39:29.113Z,63.50
2022-09-23T23:41:57.803Z,63.60
2022-09-23T23:44:26.788Z,63.70
2022-09-23T23:46:55.017Z,63.70
2022-09-23T23:49:22.566Z,63.60
2022-09-23T23:51:49.837Z,63.70
2022-09-23T23:54:17.408Z,63.80
2022-09-23T23:56:45.203Z,63.70
2022-09-23T23:59:12.646Z,63.80
